Simsbury, Connecticut
Current Conditions -  °F | °C
As of 5:51 AM on Sunday 26 Oct 2014 (Local Time) from KBDL Reporting Station
Broken Clouds Broken Clouds  
Wind Chill: 48°   Ceiling: 20000
Heat Index: 48°   Visibility: 10mi
Dew Point: 42°   Wind: 3mph
Humidity: 80%   Direction: 210°SSW
Pressure: 29.53"   Gusts: NA
Location:  41.88°N, 72.8°W
Report Text: KBDL 260951Z 21003KT 10SM BKN200 09/06 A2953 RMK AO2 RAE02 SLP997 P0000 T00890056
Loading
Personal Weather Stations






























Interactive Weather Map
Tropical Storm Tracking
New forecast layout! Learn more

10-Day Weather Forecast

Advertisements
Track Severe Weather on mobile